Time;durP1;ratioP1;P1;durP2;ratioP2;P2;SDS_P1;SDS_P2;PMS_P1;PMS_P2;Temp;Humidity;BMP_temperature;BMP_pressure;BME280_temperature;BME280_humidity;BME280_pressure;Samples;Min_cycle;Max_cycle;Signal;HPM_P1;HPM_P2
2022/12/17 13:06:37;;;;;;;0.70;0.70;;;;;;;;;;4886343;29;20200;-77
2022/12/17 13:09:22;;;;;;;0.70;0.60;;;;;;;;;;4898116;29;20290;-78
2022/12/17 13:11:49;;;;;;;0.60;0.57;;;;;;;;;;4902526;29;20199;-78
2022/12/17 13:14:18;;;;;;;1.70;1.60;;;;;;;;;;4904511;29;20198;-78
2022/12/17 13:16:51;;;;;;;0.77;0.77;;;;;;;;;;4890058;29;20559;-78
2022/12/17 13:19:30;;;;;;;0.70;0.70;;;;;;;;;;4893546;29;20259;-78
2022/12/17 13:22:08;;;;;;;0.70;0.60;;;;;;;;;;4903730;29;20218;-77
2022/12/17 13:24:35;;;;;;;0.77;0.77;;;;;;;;;;4886465;29;20227;-77
2022/12/17 13:27:02;;;;;;;0.70;0.70;;;;;;;;;;4893076;29;20210;-78
2022/12/17 13:29:31;;;;;;;0.70;0.70;;;;;;;;;;4893961;29;20210;-78
2022/12/17 13:32:04;;;;;;;0.70;0.70;;;;;;;;;;4915239;29;20211;-78
2022/12/17 13:34:50;;;;;;;0.70;0.70;;;;;;;;;;4895217;29;20196;-77
2022/12/17 13:37:26;;;;;;;0.70;0.68;;;;;;;;;;4897690;29;20206;-79
2022/12/17 13:43:57;;;;;;;0.80;0.80;;;;;;;;;;4786650;29;20230;-82
2022/12/17 13:46:25;;;;;;;0.70;0.60;;;;;;;;;;4823228;29;20693;-79
2022/12/17 13:48:53;;;;;;;0.70;0.60;;;;;;;;;;4833844;29;20273;-79
2022/12/17 13:51:23;;;;;;;0.70;0.68;;;;;;;;;;4856898;29;20698;-80
2022/12/17 13:53:52;;;;;;;0.70;0.60;;;;;;;;;;4855077;29;20640;-79
2022/12/17 13:56:24;;;;;;;1.30;1.20;;;;;;;;;;4855679;29;20268;-80
2022/12/17 13:58:52;;;;;;;0.70;0.60;;;;;;;;;;4850428;29;20217;-80
2022/12/17 14:01:19;;;;;;;0.70;0.70;;;;;;;;;;4835559;29;20579;-80
2022/12/17 14:03:50;;;;;;;0.70;0.70;;;;;;;;;;4852286;29;20240;-79
2022/12/17 14:06:36;;;;;;;1.02;0.93;;;;;;;;;;4837147;29;20677;-80
2022/12/17 14:09:04;;;;;;;0.60;0.57;;;;;;;;;;4854880;29;20216;-79
2022/12/17 14:14:20;;;;;;;0.70;0.68;;;;;;;;;;4873794;29;20656;-80
2022/12/17 14:16:47;;;;;;;0.70;0.70;;;;;;;;;;4895759;29;20282;-79
2022/12/17 14:19:20;;;;;;;0.77;0.77;;;;;;;;;;4895525;29;20222;-79
2022/12/17 14:21:49;;;;;;;1.45;1.35;;;;;;;;;;4897929;29;20206;-79
2022/12/17 14:24:17;;;;;;;0.70;0.68;;;;;;;;;;4893415;29;20210;-79
2022/12/17 14:26:48;;;;;;;0.90;0.90;;;;;;;;;;4894011;29;20235;-78
2022/12/17 14:29:20;;;;;;;1.20;1.10;;;;;;;;;;4891676;29;20228;-79
2022/12/17 14:31:51;;;;;;;0.70;0.70;;;;;;;;;;4888074;29;20198;-78
2022/12/17 14:34:19;;;;;;;0.60;0.60;;;;;;;;;;4902581;29;20215;-80
2022/12/17 14:36:51;;;;;;;0.75;0.75;;;;;;;;;;4892441;29;20740;-79
2022/12/17 14:39:22;;;;;;;0.70;0.70;;;;;;;;;;4894432;29;20307;-80
2022/12/17 14:44:41;;;;;;;0.70;0.70;;;;;;;;;;4903048;29;20227;-80
2022/12/17 14:47:12;;;;;;;0.90;0.90;;;;;;;;;;4892510;29;20225;-80
2022/12/17 14:49:47;;;;;;;0.70;0.70;;;;;;;;;;4890706;29;20616;-79
2022/12/17 14:52:27;;;;;;;0.77;0.77;;;;;;;;;;4868301;29;20207;-81
2022/12/17 14:54:56;;;;;;;0.60;0.60;;;;;;;;;;4892328;29;20737;-80
2022/12/17 14:57:23;;;;;;;0.70;0.70;;;;;;;;;;4881486;29;20255;-80
2022/12/17 14:59:51;;;;;;;0.70;0.60;;;;;;;;;;4894576;29;20202;-80
2022/12/17 15:02:22;;;;;;;0.70;0.70;;;;;;;;;;4893466;29;20589;-78
2022/12/17 15:04:50;;;;;;;0.60;0.60;;;;;;;;;;4893340;29;20556;-79
2022/12/17 15:07:21;;;;;;;0.70;0.70;;;;;;;;;;4894404;29;20287;-80
2022/12/17 15:09:48;;;;;;;0.68;0.65;;;;;;;;;;4894676;29;20187;-80
2022/12/17 15:12:16;;;;;;;0.60;0.60;;;;;;;;;;4894548;29;20533;-79
2022/12/17 15:14:45;;;;;;;0.70;0.70;;;;;;;;;;4895031;29;20218;-79
2022/12/17 15:17:12;;;;;;;0.60;0.60;;;;;;;;;;4893537;29;20322;-78
2022/12/17 15:19:39;;;;;;;0.63;0.60;;;;;;;;;;4900493;29;20215;-78
2022/12/17 15:22:09;;;;;;;0.70;0.70;;;;;;;;;;4891052;29;20299;-79
2022/12/17 15:24:36;;;;;;;0.70;0.70;;;;;;;;;;4890137;29;20215;-78
2022/12/17 15:27:03;;;;;;;0.70;0.70;;;;;;;;;;4893765;29;20202;-79
2022/12/17 15:29:33;;;;;;;0.70;0.70;;;;;;;;;;4901894;29;20601;-80
2022/12/17 15:32:01;;;;;;;0.70;0.70;;;;;;;;;;4884781;29;20243;-79
2022/12/17 15:34:28;;;;;;;0.70;0.70;;;;;;;;;;4894906;29;20286;-78
2022/12/17 15:36:55;;;;;;;0.70;0.70;;;;;;;;;;4895076;29;20209;-78
2022/12/17 15:39:23;;;;;;;0.77;0.77;;;;;;;;;;4894468;29;20267;-79
2022/12/17 15:44:36;;;;;;;0.68;0.63;;;;;;;;;;4892329;29;20571;-81
2022/12/17 15:47:03;;;;;;;0.80;0.80;;;;;;;;;;4906957;29;20668;-79
2022/12/17 15:49:30;;;;;;;0.70;0.70;;;;;;;;;;4891592;29;20190;-79
2022/12/17 15:51:58;;;;;;;0.73;0.73;;;;;;;;;;4890253;29;20226;-80
2022/12/17 15:54:25;;;;;;;0.70;0.70;;;;;;;;;;4895343;29;20199;-80
2022/12/17 15:56:52;;;;;;;0.70;0.70;;;;;;;;;;4893231;29;20259;-80
2022/12/17 15:59:19;;;;;;;0.70;0.70;;;;;;;;;;4890742;29;20202;-80
2022/12/17 16:01:48;;;;;;;0.70;0.70;;;;;;;;;;4893471;29;20215;-81
2022/12/17 16:04:15;;;;;;;0.70;0.70;;;;;;;;;;4890561;29;20211;-81
2022/12/17 16:06:50;;;;;;;0.70;0.70;;;;;;;;;;4891394;29;20203;-80
2022/12/17 16:09:17;;;;;;;0.60;0.60;;;;;;;;;;4888467;29;20203;-81
2022/12/17 16:11:44;;;;;;;0.80;0.80;;;;;;;;;;4891815;29;20250;-80
2022/12/17 16:14:10;;;;;;;0.70;0.70;;;;;;;;;;4895389;29;20199;-80
2022/12/17 16:16:37;;;;;;;0.70;0.70;;;;;;;;;;4894770;29;20656;-80
2022/12/17 16:19:06;;;;;;;0.70;0.60;;;;;;;;;;4888305;29;20222;-80
2022/12/17 16:21:35;;;;;;;0.70;0.70;;;;;;;;;;4887307;29;20225;-80
2022/12/17 16:24:09;;;;;;;0.80;0.80;;;;;;;;;;4891883;29;20202;-81
2022/12/17 16:26:36;;;;;;;0.70;0.70;;;;;;;;;;4901996;29;20305;-79
2022/12/17 16:29:03;;;;;;;0.70;0.70;;;;;;;;;;4905913;29;20298;-79
2022/12/17 16:31:30;;;;;;;0.70;0.68;;;;;;;;;;4888366;29;20660;-80
2022/12/17 16:33:57;;;;;;;0.98;0.98;;;;;;;;;;4890661;29;20230;-79
2022/12/17 16:36:26;;;;;;;0.90;0.90;;;;;;;;;;4900128;29;20212;-79
2022/12/17 16:38:53;;;;;;;0.70;0.70;;;;;;;;;;4889912;29;20291;-79
2022/12/17 16:41:21;;;;;;;0.70;0.60;;;;;;;;;;4890952;29;20222;-80
2022/12/17 16:43:49;;;;;;;0.90;0.90;;;;;;;;;;4899518;29;20227;-80
2022/12/17 16:46:25;;;;;;;0.63;0.63;;;;;;;;;;4899290;29;20207;-79
2022/12/17 16:48:52;;;;;;;0.70;0.70;;;;;;;;;;4885647;29;20219;-80
2022/12/17 16:51:20;;;;;;;0.70;0.70;;;;;;;;;;4894742;29;20199;-79
2022/12/17 16:53:56;;;;;;;0.70;0.70;;;;;;;;;;4904030;29;20222;-79
2022/12/17 16:56:23;;;;;;;0.70;0.70;;;;;;;;;;4905795;29;20653;-79
2022/12/17 16:58:51;;;;;;;0.70;0.70;;;;;;;;;;4893973;29;20207;-79
2022/12/17 17:01:19;;;;;;;0.65;0.60;;;;;;;;;;4899867;29;20293;-79
2022/12/17 17:03:47;;;;;;;1.02;1.02;;;;;;;;;;4888546;29;20590;-79
2022/12/17 17:06:15;;;;;;;0.70;0.70;;;;;;;;;;4890186;29;20207;-80
2022/12/17 17:08:42;;;;;;;0.70;0.70;;;;;;;;;;4895270;29;20318;-82
2022/12/17 17:11:12;;;;;;;0.68;0.68;;;;;;;;;;4892451;29;20279;-79
2022/12/17 17:13:39;;;;;;;1.05;1.05;;;;;;;;;;4881303;29;20311;-80
2022/12/17 17:16:08;;;;;;;0.75;0.75;;;;;;;;;;4894083;29;20207;-80
2022/12/17 17:18:35;;;;;;;0.70;0.70;;;;;;;;;;4891713;29;20232;-80
2022/12/17 17:21:13;;;;;;;0.68;0.68;;;;;;;;;;4893427;29;20198;-81
2022/12/17 17:23:42;;;;;;;0.70;0.70;;;;;;;;;;4887694;29;20199;-80
2022/12/17 17:26:12;;;;;;;1.13;1.05;;;;;;;;;;4879914;29;20586;-80
2022/12/17 17:33:10;;;;;;;0.70;0.70;;;;;;;;;;4836935;29;20257;-79
2022/12/17 17:47:34;;;;;;;0.60;0.60;;;;;;;;;;4842166;29;20200;-80
2022/12/17 17:50:00;;;;;;;0.80;0.80;;;;;;;;;;4852741;29;20207;-78
2022/12/17 17:52:27;;;;;;;0.80;0.80;;;;;;;;;;4899705;29;20290;-80
2022/12/17 17:54:54;;;;;;;2.13;1.98;;;;;;;;;;4901190;29;20188;-78
2022/12/17 17:57:21;;;;;;;0.75;0.75;;;;;;;;;;4902612;29;20192;-80
2022/12/17 17:59:48;;;;;;;0.90;0.90;;;;;;;;;;4902224;29;20202;-79
2022/12/17 18:02:15;;;;;;;4.93;2.15;;;;;;;;;;4896900;29;20252;-80
2022/12/17 18:04:44;;;;;;;0.70;0.70;;;;;;;;;;4893582;29;20624;-80
2022/12/17 18:07:10;;;;;;;0.63;0.60;;;;;;;;;;4892646;29;20203;-80
2022/12/17 18:09:54;;;;;;;0.80;0.80;;;;;;;;;;4880279;29;20203;-80
2022/12/17 18:15:06;;;;;;;0.90;0.90;;;;;;;;;;4909177;29;20305;-80
2022/12/17 18:17:49;;;;;;;0.70;0.68;;;;;;;;;;4903231;29;20233;-81
2022/12/17 18:20:17;;;;;;;4.15;3.85;;;;;;;;;;4902442;29;20206;-81
2022/12/17 18:22:45;;;;;;;0.70;0.70;;;;;;;;;;4904574;29;20191;-81
2022/12/17 18:25:13;;;;;;;0.80;0.80;;;;;;;;;;4896428;29;20243;-78
2022/12/17 18:27:43;;;;;;;0.70;0.60;;;;;;;;;;4898624;29;20199;-81
2022/12/17 18:30:11;;;;;;;0.70;0.70;;;;;;;;;;4892270;29;20210;-81
2022/12/17 18:32:38;;;;;;;0.90;0.90;;;;;;;;;;4901655;29;20222;-80
2022/12/17 18:35:05;;;;;;;0.70;0.70;;;;;;;;;;4901851;29;20231;-82
2022/12/17 18:37:33;;;;;;;0.80;0.80;;;;;;;;;;4884939;29;20208;-81
2022/12/17 18:40:00;;;;;;;0.70;0.70;;;;;;;;;;4902588;29;20210;-79
2022/12/17 18:45:13;;;;;;;0.80;0.80;;;;;;;;;;4915699;29;20223;-81
2022/12/17 18:47:41;;;;;;;0.88;0.88;;;;;;;;;;4905359;29;20219;-80
2022/12/17 18:50:08;;;;;;;0.70;0.70;;;;;;;;;;4896582;29;20210;-81
2022/12/17 18:52:40;;;;;;;0.70;0.70;;;;;;;;;;4893532;29;20231;-81
2022/12/17 18:55:10;;;;;;;0.75;0.73;;;;;;;;;;4886573;29;20203;-81
2022/12/17 18:57:39;;;;;;;0.70;0.70;;;;;;;;;;4910342;29;20214;-82
2022/12/17 19:00:06;;;;;;;0.70;0.68;;;;;;;;;;4894216;29;20254;-83
2022/12/17 19:02:33;;;;;;;0.70;0.70;;;;;;;;;;4898761;29;20250;-82
2022/12/17 19:05:00;;;;;;;0.70;0.70;;;;;;;;;;4882611;29;20230;-81
2022/12/17 19:07:27;;;;;;;0.70;0.70;;;;;;;;;;4873680;29;20211;-82
2022/12/17 19:09:55;;;;;;;0.80;0.80;;;;;;;;;;4871021;29;20211;-82
2022/12/17 19:12:22;;;;;;;0.60;0.60;;;;;;;;;;4901111;29;20202;-81
2022/12/17 19:14:52;;;;;;;0.65;0.65;;;;;;;;;;4898389;29;20192;-81
2022/12/17 19:17:21;;;;;;;0.70;0.70;;;;;;;;;;4901013;29;20583;-82
2022/12/17 19:19:52;;;;;;;0.63;0.60;;;;;;;;;;4898990;29;20231;-80
2022/12/17 19:22:20;;;;;;;0.60;0.60;;;;;;;;;;4893878;29;20199;-80
2022/12/17 19:24:46;;;;;;;0.70;0.68;;;;;;;;;;4908674;29;20227;-81
2022/12/17 19:27:15;;;;;;;0.68;0.68;;;;;;;;;;4906250;29;20209;-81
2022/12/17 19:29:42;;;;;;;0.93;0.93;;;;;;;;;;4918604;29;20305;-80
2022/12/17 19:32:17;;;;;;;0.70;0.70;;;;;;;;;;4892628;29;20241;-82
2022/12/17 19:34:44;;;;;;;0.73;0.73;;;;;;;;;;4893392;29;20199;-81
2022/12/17 19:37:11;;;;;;;0.80;0.80;;;;;;;;;;4894793;29;20199;-77
2022/12/17 19:39:40;;;;;;;0.80;0.80;;;;;;;;;;4882807;29;20198;-81
2022/12/17 19:42:23;;;;;;;0.80;0.80;;;;;;;;;;4897632;29;20210;-80
2022/12/17 19:44:52;;;;;;;0.70;0.70;;;;;;;;;;4896392;29;20672;-80
2022/12/17 19:47:19;;;;;;;0.80;0.80;;;;;;;;;;4897280;29;20227;-79
2022/12/17 19:49:47;;;;;;;0.80;0.80;;;;;;;;;;4899758;29;20202;-79
2022/12/17 19:52:14;;;;;;;0.75;0.75;;;;;;;;;;4896157;29;20227;-79
2022/12/17 19:54:41;;;;;;;0.70;0.60;;;;;;;;;;4878212;29;20203;-79
2022/12/17 19:57:09;;;;;;;0.80;0.80;;;;;;;;;;4895837;29;20609;-79
2022/12/17 19:59:35;;;;;;;0.65;0.65;;;;;;;;;;4894976;29;20195;-79
2022/12/17 20:02:03;;;;;;;0.82;0.82;;;;;;;;;;4882887;29;20199;-79
2022/12/17 20:04:30;;;;;;;0.75;0.75;;;;;;;;;;4872549;29;20222;-79
2022/12/17 20:06:59;;;;;;;0.80;0.80;;;;;;;;;;4887738;29;20242;-78
2022/12/17 20:09:26;;;;;;;0.70;0.70;;;;;;;;;;4878364;29;20203;-81
2022/12/17 20:11:53;;;;;;;0.75;0.75;;;;;;;;;;4889080;29;20246;-78
2022/12/17 20:14:27;;;;;;;0.70;0.70;;;;;;;;;;4885867;29;20608;-78
2022/12/17 20:16:54;;;;;;;0.82;0.82;;;;;;;;;;4888228;29;20199;-78
2022/12/17 20:19:24;;;;;;;0.70;0.65;;;;;;;;;;4895933;29;20315;-81
2022/12/17 20:21:51;;;;;;;0.90;0.90;;;;;;;;;;4896922;29;20223;-79
2022/12/17 20:24:18;;;;;;;0.75;0.75;;;;;;;;;;4893397;29;20191;-80
2022/12/17 20:26:47;;;;;;;0.65;0.63;;;;;;;;;;4901092;29;20205;-79
2022/12/17 20:29:14;;;;;;;1.00;0.90;;;;;;;;;;4896094;29;20267;-80
2022/12/17 20:31:41;;;;;;;0.88;0.88;;;;;;;;;;4893649;29;20198;-79
2022/12/17 20:34:16;;;;;;;0.70;0.70;;;;;;;;;;4908096;29;20242;-78
2022/12/17 20:36:48;;;;;;;0.90;0.90;;;;;;;;;;4901480;29;20206;-81
2022/12/17 20:39:15;;;;;;;0.80;0.80;;;;;;;;;;4883056;29;20203;-78
2022/12/17 20:41:42;;;;;;;0.85;0.85;;;;;;;;;;4888149;29;20200;-79
2022/12/17 20:44:10;;;;;;;0.70;0.70;;;;;;;;;;4891596;29;20644;-79
2022/12/17 20:46:37;;;;;;;0.60;0.60;;;;;;;;;;4895229;29;20210;-80
2022/12/17 20:49:06;;;;;;;0.90;0.90;;;;;;;;;;4898895;29;20250;-80
2022/12/17 20:51:32;;;;;;;0.80;0.80;;;;;;;;;;4888931;29;20224;-78
2022/12/17 20:54:01;;;;;;;1.80;1.70;;;;;;;;;;4891574;29;20202;-79
2022/12/17 20:56:29;;;;;;;0.70;0.65;;;;;;;;;;4906879;29;21302;-79
2022/12/17 20:59:01;;;;;;;0.80;0.80;;;;;;;;;;4902880;29;20207;-80
2022/12/17 21:01:31;;;;;;;1.67;1.58;;;;;;;;;;4899841;29;20191;-79
2022/12/17 21:03:58;;;;;;;0.80;0.80;;;;;;;;;;4884964;29;20323;-77
2022/12/17 21:06:27;;;;;;;1.00;1.00;;;;;;;;;;4887355;29;20310;-79
2022/12/17 21:08:54;;;;;;;0.70;0.70;;;;;;;;;;4895706;29;20236;-79
2022/12/17 21:11:24;;;;;;;0.82;0.82;;;;;;;;;;4897772;29;20194;-79
2022/12/17 21:13:51;;;;;;;1.10;1.10;;;;;;;;;;4900354;29;20212;-79
2022/12/17 21:16:19;;;;;;;0.70;0.70;;;;;;;;;;4901981;29;20202;-80
2022/12/17 21:18:47;;;;;;;0.88;0.88;;;;;;;;;;4903745;29;20227;-80
2022/12/17 21:21:19;;;;;;;0.73;0.73;;;;;;;;;;4890567;29;20202;-78
2022/12/17 21:23:46;;;;;;;0.80;0.80;;;;;;;;;;4889387;29;20729;-80
2022/12/17 21:26:14;;;;;;;0.90;0.90;;;;;;;;;;4883148;29;20330;-78
2022/12/17 21:28:46;;;;;;;0.93;0.93;;;;;;;;;;4879410;29;20223;-79
2022/12/17 21:31:13;;;;;;;0.80;0.80;;;;;;;;;;4897449;29;20227;-79
2022/12/17 21:33:40;;;;;;;2.95;2.38;;;;;;;;;;4898141;29;20234;-79
2022/12/17 21:36:08;;;;;;;0.95;0.95;;;;;;;;;;4897850;29;20194;-80
2022/12/17 21:38:35;;;;;;;0.60;0.60;;;;;;;;;;4897033;29;20191;-79
2022/12/17 21:41:03;;;;;;;0.80;0.80;;;;;;;;;;4896631;29;20739;-79
2022/12/17 21:43:30;;;;;;;0.70;0.65;;;;;;;;;;4895267;29;20211;-79
2022/12/17 21:45:58;;;;;;;0.73;0.73;;;;;;;;;;4896365;29;20222;-80
2022/12/17 21:48:25;;;;;;;0.80;0.80;;;;;;;;;;4894052;29;20299;-78
2022/12/17 21:50:54;;;;;;;0.70;0.70;;;;;;;;;;4898845;29;20200;-79
2022/12/17 21:53:23;;;;;;;0.60;0.60;;;;;;;;;;4897092;29;20219;-79
2022/12/17 21:56:00;;;;;;;0.70;0.70;;;;;;;;;;4895799;29;20210;-77
2022/12/17 21:58:28;;;;;;;1.52;1.45;;;;;;;;;;4890190;29;20191;-81
2022/12/17 22:00:57;;;;;;;1.50;1.40;;;;;;;;;;4892836;29;20223;-80
2022/12/17 22:03:24;;;;;;;0.85;0.85;;;;;;;;;;4894593;29;20231;-81
2022/12/17 22:05:51;;;;;;;0.70;0.70;;;;;;;;;;4900672;29;20294;-79
2022/12/17 22:08:19;;;;;;;0.70;0.70;;;;;;;;;;4911142;29;20204;-81
2022/12/17 22:10:46;;;;;;;0.77;0.77;;;;;;;;;;4903965;29;20264;-79
2022/12/17 22:16:08;;;;;;;0.80;0.80;;;;;;;;;;4890018;29;20199;-80
2022/12/17 22:18:39;;;;;;;1.23;1.13;;;;;;;;;;4904414;29;20223;-80
2022/12/17 22:21:07;;;;;;;0.70;0.70;;;;;;;;;;4899010;29;20214;-80
2022/12/17 22:23:37;;;;;;;0.80;0.80;;;;;;;;;;4901093;29;20234;-80
2022/12/17 22:26:07;;;;;;;0.80;0.80;;;;;;;;;;4899830;29;20707;-80
2022/12/17 22:28:35;;;;;;;0.80;0.80;;;;;;;;;;4909464;29;20244;-79
2022/12/17 22:33:51;;;;;;;0.77;0.77;;;;;;;;;;4902867;29;20239;-79
2022/12/17 22:36:40;;;;;;;0.90;0.90;;;;;;;;;;4894343;29;20219;-79
2022/12/17 22:39:27;;;;;;;0.60;0.60;;;;;;;;;;4895850;29;20226;-80
2022/12/17 22:45:19;;;;;;;0.75;0.73;;;;;;;;;;4903645;29;20231;-79
2022/12/17 22:47:46;;;;;;;0.80;0.80;;;;;;;;;;4887396;29;20239;-82
2022/12/17 22:50:15;;;;;;;0.68;0.65;;;;;;;;;;4877885;29;20212;-80
2022/12/17 22:52:42;;;;;;;0.80;0.80;;;;;;;;;;4901066;29;20221;-79
2022/12/17 22:55:14;;;;;;;0.90;0.90;;;;;;;;;;4894653;29;20657;-79
2022/12/17 22:57:41;;;;;;;0.77;0.77;;;;;;;;;;4897453;29;20294;-79
2022/12/17 23:00:11;;;;;;;0.70;0.70;;;;;;;;;;4884929;29;20211;-80
2022/12/17 23:02:41;;;;;;;0.80;0.80;;;;;;;;;;4899516;29;20230;-79
2022/12/17 23:05:08;;;;;;;0.90;0.90;;;;;;;;;;4901199;29;20207;-78
2022/12/17 23:07:37;;;;;;;0.85;0.85;;;;;;;;;;4902033;29;20699;-79
2022/12/17 23:10:04;;;;;;;0.80;0.80;;;;;;;;;;4900893;29;20229;-79
2022/12/17 23:15:17;;;;;;;0.85;0.85;;;;;;;;;;4884589;29;20211;-79
2022/12/17 23:17:43;;;;;;;1.00;1.00;;;;;;;;;;4897014;29;20231;-78
2022/12/17 23:20:13;;;;;;;0.70;0.70;;;;;;;;;;4896243;29;20203;-79
2022/12/17 23:22:41;;;;;;;0.80;0.80;;;;;;;;;;4901739;29;20564;-79
2022/12/17 23:25:09;;;;;;;0.90;0.90;;;;;;;;;;4893965;29;20235;-78
2022/12/17 23:27:35;;;;;;;0.70;0.70;;;;;;;;;;4893990;29;20223;-78
2022/12/17 23:30:07;;;;;;;0.80;0.80;;;;;;;;;;4894153;29;20207;-79
2022/12/17 23:32:34;;;;;;;0.90;0.90;;;;;;;;;;4890134;29;20227;-79
2022/12/17 23:35:01;;;;;;;0.70;0.70;;;;;;;;;;4888411;29;20200;-79
2022/12/17 23:37:30;;;;;;;1.05;1.05;;;;;;;;;;4889563;29;20577;-79
2022/12/17 23:40:16;;;;;;;1.02;1.02;;;;;;;;;;4889064;29;20219;-78
2022/12/17 23:42:44;;;;;;;0.60;0.60;;;;;;;;;;4890819;29;20214;-79
2022/12/17 23:45:11;;;;;;;0.82;0.82;;;;;;;;;;4890235;29;20205;-79
2022/12/17 23:47:39;;;;;;;0.70;0.70;;;;;;;;;;4895164;29;20234;-79
2022/12/17 23:50:07;;;;;;;0.90;0.90;;;;;;;;;;4893370;29;20222;-78
2022/12/17 23:52:35;;;;;;;0.80;0.80;;;;;;;;;;4893371;29;20203;-79
2022/12/17 23:55:02;;;;;;;0.70;0.70;;;;;;;;;;4893225;29;20725;-80
2022/12/17 23:57:31;;;;;;;0.70;0.68;;;;;;;;;;4892634;29;20219;-79
2022/12/17 23:59:58;;;;;;;0.70;0.70;;;;;;;;;;4893450;29;20204;-79
